createdAt,value
2018-05-23T00:01:31.653Z,91.30
2018-05-23T00:04:00.111Z,91.20
2018-05-23T00:06:28.519Z,91.20
2018-05-23T00:08:57.723Z,91.30
2018-05-23T00:11:26.902Z,91.40
2018-05-23T00:13:55.346Z,91.40
2018-05-23T00:16:23.765Z,91.40
2018-05-23T00:18:52.236Z,91.50
2018-05-23T00:21:20.661Z,91.70
2018-05-23T00:23:49.887Z,91.60
2018-05-23T00:26:18.296Z,91.50
2018-05-23T00:28:46.768Z,91.40
2018-05-23T00:31:15.186Z,91.40
2018-05-23T00:33:43.614Z,91.30
2018-05-23T00:36:12.069Z,91.30
2018-05-23T00:38:40.502Z,91.60
2018-05-23T00:41:08.941Z,91.70
2018-05-23T00:43:38.132Z,91.50
2018-05-23T00:46:06.594Z,91.50
2018-05-23T00:48:35.037Z,91.50
2018-05-23T00:51:03.489Z,91.40
2018-05-23T00:53:31.900Z,91.40
2018-05-23T00:56:00.353Z,91.30
2018-05-23T00:58:28.767Z,91.30
2018-05-23T01:00:57.971Z,91.00
2018-05-23T01:03:26.388Z,91.00
2018-05-23T01:05:54.831Z,90.90
2018-05-23T01:08:24.014Z,91.10
2018-05-23T01:10:52.466Z,91.10
2018-05-23T01:13:20.880Z,91.00
2018-05-23T01:15:49.339Z,91.10
2018-05-23T01:18:17.751Z,91.30
2018-05-23T01:20:46.194Z,91.30
2018-05-23T01:23:14.605Z,91.40
2018-05-23T01:25:43.046Z,91.60
2018-05-23T01:28:11.468Z,91.70
2018-05-23T01:30:39.923Z,91.70
2018-05-23T01:33:08.329Z,91.60
2018-05-23T01:35:36.780Z,91.50
2018-05-23T01:38:05.215Z,91.40
2018-05-23T01:40:33.677Z,91.40
2018-05-23T01:43:02.100Z,91.40
2018-05-23T01:45:31.329Z,91.60
2018-05-23T01:47:59.730Z,91.50
2018-05-23T01:50:28.174Z,91.60
2018-05-23T01:52:57.408Z,91.40
2018-05-23T01:55:26.591Z,91.30
2018-05-23T01:57:55.021Z,91.30
2018-05-23T02:00:23.464Z,91.40
2018-05-23T02:02:51.887Z,91.50
2018-05-23T02:05:20.327Z,91.50
2018-05-23T02:07:49.596Z,91.70
2018-05-23T02:10:18.052Z,91.70
2018-05-23T02:12:46.460Z,91.90
2018-05-23T02:15:14.904Z,92.10
2018-05-23T02:17:43.307Z,92.10
2018-05-23T02:20:11.770Z,92.20
2018-05-23T02:22:40.194Z,92.00
2018-05-23T02:25:08.635Z,91.50
2018-05-23T02:27:37.042Z,91.70
2018-05-23T02:30:05.516Z,91.80
2018-05-23T02:32:33.943Z,92.20
2018-05-23T02:35:02.363Z,92.20
2018-05-23T02:37:30.848Z,92.30
2018-05-23T02:39:59.272Z,92.40
2018-05-23T02:42:27.727Z,92.50
2018-05-23T02:44:56.141Z,92.50
2018-05-23T02:47:24.633Z,92.50
2018-05-23T02:49:53.074Z,92.30
2018-05-23T02:52:21.547Z,92.30
2018-05-23T02:54:50.740Z,92.40
2018-05-23T02:57:19.953Z,92.60
2018-05-23T02:59:49.139Z,92.30
2018-05-23T03:02:17.620Z,92.30
2018-05-23T03:04:46.046Z,92.40
2018-05-23T03:07:14.479Z,92.30
2018-05-23T03:09:42.905Z,92.20
2018-05-23T03:12:11.356Z,92.10
2018-05-23T03:14:39.759Z,92.20
2018-05-23T03:17:08.961Z,92.20
2018-05-23T03:19:38.134Z,92.10
2018-05-23T03:22:06.657Z,92.10
2018-05-23T03:24:35.020Z,92.00
2018-05-23T03:27:03.475Z,91.90
2018-05-23T03:29:31.879Z,92.00
2018-05-23T03:32:00.328Z,92.00
2018-05-23T03:34:28.754Z,92.00
2018-05-23T03:36:57.972Z,91.70
2018-05-23T03:39:27.160Z,91.90
2018-05-23T03:41:55.627Z,91.90
2018-05-23T03:44:24.076Z,92.10
2018-05-23T03:46:52.527Z,92.10
2018-05-23T03:49:21.708Z,92.20
2018-05-23T03:51:50.149Z,92.10
2018-05-23T03:54:18.573Z,92.20
2018-05-23T03:56:47.039Z,92.10
2018-05-23T03:59:15.450Z,92.10
2018-05-23T04:02:01.501Z,92.10
2018-05-23T04:04:47.871Z,91.90
2018-05-23T04:07:44.625Z,92.40
2018-05-23T04:10:13.112Z,92.30
2018-05-23T04:12:41.565Z,92.30
2018-05-23T04:15:09.991Z,92.30
2018-05-23T04:17:38.434Z,92.40
2018-05-23T04:20:06.856Z,92.40
2018-05-23T04:22:35.300Z,92.30
2018-05-23T04:25:03.748Z,92.20
2018-05-23T04:27:32.256Z,92.10
2018-05-23T04:30:00.663Z,92.20
2018-05-23T04:32:29.123Z,92.20
2018-05-23T04:34:58.282Z,92.20
2018-05-23T04:37:26.678Z,92.20
2018-05-23T04:39:55.128Z,92.10
2018-05-23T04:42:23.603Z,92.10
2018-05-23T04:44:52.039Z,92.00
2018-05-23T04:47:20.470Z,91.90
2018-05-23T04:49:48.905Z,91.80
2018-05-23T04:52:17.304Z,91.70
2018-05-23T04:54:45.726Z,91.70
2018-05-23T04:57:14.186Z,91.70
2018-05-23T04:59:42.578Z,91.70
2018-05-23T05:02:10.979Z,91.60
2018-05-23T05:04:39.424Z,91.60
2018-05-23T05:07:07.831Z,91.50
2018-05-23T05:09:36.264Z,91.30
2018-05-23T05:12:04.665Z,91.50
2018-05-23T05:14:33.102Z,91.60
2018-05-23T05:17:01.495Z,91.50
2018-05-23T05:19:29.923Z,91.40
2018-05-23T05:21:58.330Z,91.40
2018-05-23T05:24:27.520Z,91.30
2018-05-23T05:26:56.695Z,91.40
2018-05-23T05:29:25.128Z,91.30
2018-05-23T05:31:53.622Z,91.30
2018-05-23T05:34:22.008Z,91.50
2018-05-23T05:36:50.402Z,91.00
2018-05-23T05:39:18.839Z,90.90
2018-05-23T05:41:48.011Z,91.50
2018-05-23T05:44:16.457Z,91.50
2018-05-23T05:46:44.873Z,91.90
2018-05-23T05:49:13.308Z,91.80
2018-05-23T05:51:42.484Z,92.20
2018-05-23T05:54:10.917Z,92.20
2018-05-23T05:56:39.347Z,92.60
2018-05-23T05:59:07.780Z,92.10
2018-05-23T06:01:36.183Z,91.40
2018-05-23T06:04:04.639Z,91.50
2018-05-23T06:06:33.054Z,91.80
2018-05-23T06:09:01.490Z,92.00
2018-05-23T06:11:30.672Z,92.10
2018-05-23T06:13:59.092Z,92.10
2018-05-23T06:16:27.491Z,92.10
2018-05-23T06:18:56.319Z,92.10
2018-05-23T06:21:24.728Z,91.70
2018-05-23T06:23:54.599Z,91.10
2018-05-23T06:26:22.973Z,91.10
2018-05-23T06:28:51.403Z,91.20
2018-05-23T06:31:19.806Z,91.00
2018-05-23T06:33:49.012Z,91.30
2018-05-23T06:36:18.190Z,91.00
2018-05-23T06:38:46.622Z,91.00
2018-05-23T06:41:15.018Z,91.30
2018-05-23T06:43:43.614Z,91.40
2018-05-23T06:46:11.981Z,91.70
2018-05-23T06:48:40.314Z,91.80
2018-05-23T06:51:09.521Z,92.20
2018-05-23T06:53:37.914Z,91.90
2018-05-23T06:56:07.092Z,91.60
2018-05-23T06:58:35.498Z,91.60
2018-05-23T07:01:04.698Z,91.00
2018-05-23T07:03:33.860Z,90.90
2018-05-23T07:06:02.306Z,90.90
2018-05-23T07:08:30.700Z,91.40
2018-05-23T07:10:59.140Z,91.30
2018-05-23T07:13:27.525Z,91.20
2018-05-23T07:15:55.946Z,91.40
2018-05-23T07:18:24.352Z,91.50
2018-05-23T07:20:52.791Z,92.00
2018-05-23T07:23:21.966Z,91.80
2018-05-23T07:25:51.244Z,91.80
2018-05-23T07:28:19.640Z,91.70
2018-05-23T07:30:48.088Z,91.50
2018-05-23T07:33:16.520Z,91.40
2018-05-23T07:35:45.756Z,91.50
2018-05-23T07:38:14.207Z,91.50
2018-05-23T07:40:42.653Z,91.90
2018-05-23T07:43:11.071Z,91.80
2018-05-23T07:45:39.520Z,91.10
2018-05-23T07:48:07.940Z,90.90
2018-05-23T07:50:36.396Z,90.80
2018-05-23T07:53:04.807Z,90.60
2018-05-23T07:55:33.263Z,91.10
2018-05-23T07:58:01.679Z,91.30
2018-05-23T08:00:30.150Z,91.40
2018-05-23T08:02:59.461Z,90.90
2018-05-23T08:05:27.888Z,90.90
2018-05-23T08:07:57.094Z,91.00
2018-05-23T08:10:25.559Z,91.00
2018-05-23T08:12:54.749Z,91.20
2018-05-23T08:15:23.192Z,90.80
2018-05-23T08:17:51.600Z,91.00
2018-05-23T08:20:20.053Z,90.60
2018-05-23T08:22:48.454Z,90.20
2018-05-23T08:25:16.886Z,90.00
2018-05-23T08:27:46.057Z,90.30
2018-05-23T08:30:14.497Z,90.20
2018-05-23T08:32:42.906Z,91.00
2018-05-23T08:35:11.300Z,91.10
2018-05-23T08:37:39.726Z,91.50
2018-05-23T08:40:08.903Z,91.70
2018-05-23T08:42:37.338Z,91.70
2018-05-23T08:45:05.753Z,91.60
2018-05-23T08:47:34.256Z,91.20
2018-05-23T08:50:02.663Z,90.80
2018-05-23T08:52:31.866Z,90.70
2018-05-23T08:55:01.064Z,90.00
2018-05-23T08:57:30.318Z,90.20
2018-05-23T08:59:58.722Z,90.20
2018-05-23T09:02:27.207Z,90.40
2018-05-23T09:04:55.643Z,90.60
2018-05-23T09:07:24.162Z,90.70
2018-05-23T09:09:52.567Z,90.20
2018-05-23T09:12:21.026Z,90.50
2018-05-23T09:14:49.411Z,90.80
2018-05-23T09:17:17.881Z,90.00
2018-05-23T09:19:46.279Z,90.60
2018-05-23T09:22:14.735Z,91.30
2018-05-23T09:24:43.139Z,90.60
2018-05-23T09:27:11.576Z,91.40
2018-05-23T09:29:40.744Z,91.30
2018-05-23T09:32:09.252Z,91.30
2018-05-23T09:34:37.590Z,90.20
2018-05-23T09:37:06.023Z,90.60
2018-05-23T09:39:34.435Z,90.30
2018-05-23T09:42:02.873Z,89.60
2018-05-23T09:44:32.084Z,90.50
2018-05-23T09:47:00.511Z,90.50
2018-05-23T09:49:28.919Z,90.60
2018-05-23T09:51:57.349Z,90.90
2018-05-23T09:54:25.739Z,90.80
2018-05-23T09:56:54.183Z,91.10
2018-05-23T09:59:22.608Z,91.70
2018-05-23T10:01:51.799Z,89.50
2018-05-23T10:04:20.214Z,89.40
2018-05-23T10:06:48.629Z,88.30
2018-05-23T10:09:17.044Z,89.40
2018-05-23T10:11:45.480Z,88.20
2018-05-23T10:14:13.881Z,86.30
2018-05-23T10:16:43.077Z,89.30
2018-05-23T10:19:11.484Z,89.30
2018-05-23T10:21:39.927Z,87.90
2018-05-23T10:24:08.323Z,89.30
2018-05-23T10:26:36.758Z,88.50
2018-05-23T10:29:05.161Z,87.50
2018-05-23T10:31:34.347Z,88.10
2018-05-23T10:34:03.549Z,88.20
2018-05-23T10:36:31.948Z,88.20
2018-05-23T10:39:01.184Z,89.00
2018-05-23T10:41:29.556Z,89.00
2018-05-23T10:43:57.984Z,89.30
2018-05-23T10:46:26.388Z,90.80
2018-05-23T10:48:54.823Z,88.30
2018-05-23T10:51:23.235Z,85.90
2018-05-23T10:53:51.671Z,84.90
2018-05-23T10:56:20.066Z,85.40
2018-05-23T10:58:48.498Z,85.10
2018-05-23T11:01:16.895Z,86.30
2018-05-23T11:03:46.093Z,86.10
2018-05-23T11:06:15.288Z,87.80
2018-05-23T11:08:44.497Z,86.50
2018-05-23T11:11:13.664Z,86.90
2018-05-23T11:13:42.107Z,86.40
2018-05-23T11:16:10.515Z,87.10
2018-05-23T11:18:39.718Z,83.20
2018-05-23T11:21:08.116Z,82.90
2018-05-23T11:23:36.560Z,85.70
2018-05-23T11:26:04.959Z,80.80
2018-05-23T11:28:33.404Z,73.70
2018-05-23T11:31:02.576Z,76.00
2018-05-23T11:33:31.015Z,76.10
2018-05-23T11:35:59.411Z,74.60
2018-05-23T11:38:28.653Z,75.80
2018-05-23T11:40:57.073Z,75.80
2018-05-23T11:43:26.286Z,72.90
2018-05-23T11:45:54.704Z,72.90
2018-05-23T11:48:23.150Z,71.60
2018-05-23T11:50:51.571Z,70.10
2018-05-23T11:53:20.004Z,73.30
2018-05-23T11:55:49.176Z,73.30
2018-05-23T11:58:17.618Z,73.30
2018-05-23T12:00:46.060Z,71.10
2018-05-23T12:03:14.589Z,68.70
2018-05-23T12:05:43.013Z,66.80
2018-05-23T12:08:11.485Z,78.80
2018-05-23T12:10:40.085Z,76.40
2018-05-23T12:13:08.401Z,79.30
2018-05-23T12:15:37.599Z,70.40
2018-05-23T12:18:06.830Z,65.60
2018-05-23T12:20:35.271Z,65.40
2018-05-23T12:23:03.722Z,68.60
2018-05-23T12:25:32.141Z,69.80
2018-05-23T12:28:00.605Z,67.80
2018-05-23T12:30:29.018Z,64.30
2018-05-23T12:32:58.240Z,67.00
2018-05-23T12:35:26.669Z,67.00
2018-05-23T12:37:55.127Z,69.60
2018-05-23T12:40:23.573Z,69.60
2018-05-23T12:42:51.978Z,71.70
2018-05-23T12:45:20.431Z,68.20
2018-05-23T12:47:48.862Z,65.90
2018-05-23T12:50:17.313Z,67.80
2018-05-23T12:52:46.495Z,66.50
2018-05-23T12:55:14.938Z,66.40
2018-05-23T12:57:43.343Z,63.90
2018-05-23T13:00:11.842Z,64.30
2018-05-23T13:02:40.322Z,64.30
2018-05-23T13:05:08.761Z,63.30
2018-05-23T13:07:37.216Z,69.40
2018-05-23T13:10:05.691Z,72.80
2018-05-23T13:12:34.348Z,65.30
2018-05-23T13:15:02.684Z,64.20
2018-05-23T13:17:31.910Z,67.20
2018-05-23T13:20:00.354Z,67.20
2018-05-23T13:22:28.871Z,61.50
2018-05-23T13:24:57.449Z,60.80
2018-05-23T13:27:26.664Z,61.60
2018-05-23T13:29:55.103Z,61.60
2018-05-23T13:32:23.549Z,64.90
2018-05-23T13:34:52.020Z,64.80
2018-05-23T13:37:20.449Z,63.40
2018-05-23T13:39:48.927Z,63.30
2018-05-23T13:42:17.336Z,63.70
2018-05-23T13:44:45.804Z,61.90
2018-05-23T13:47:14.228Z,60.40
2018-05-23T13:49:43.436Z,62.50
2018-05-23T13:52:11.863Z,62.50
2018-05-23T13:54:40.299Z,63.80
2018-05-23T13:57:09.483Z,61.90
2018-05-23T13:59:37.920Z,61.90
2018-05-23T14:02:06.335Z,63.10
2018-05-23T14:04:34.814Z,64.80
2018-05-23T14:07:03.219Z,64.10
2018-05-23T14:09:31.684Z,63.40
2018-05-23T14:12:00.101Z,69.00
2018-05-23T14:14:29.314Z,65.10
2018-05-23T14:16:58.496Z,70.20
2018-05-23T14:19:26.941Z,70.10
2018-05-23T14:21:55.373Z,65.60
2018-05-23T14:24:24.601Z,67.30
2018-05-23T14:26:53.007Z,67.30
2018-05-23T14:29:21.468Z,63.50
2018-05-23T14:31:49.881Z,60.60
2018-05-23T14:34:18.325Z,56.90
2018-05-23T14:36:46.750Z,59.60
2018-05-23T14:39:15.172Z,64.40
2018-05-23T14:41:43.654Z,61.80
2018-05-23T14:44:12.062Z,61.80
2018-05-23T14:46:40.542Z,62.30
2018-05-23T14:49:08.976Z,63.60
2018-05-23T14:51:37.421Z,63.90
2018-05-23T14:54:05.835Z,66.30
2018-05-23T14:56:34.281Z,67.60
2018-05-23T14:59:03.481Z,68.60
2018-05-23T15:01:31.944Z,68.60
2018-05-23T15:04:01.139Z,69.30
2018-05-23T15:06:29.601Z,69.30
2018-05-23T15:08:58.009Z,68.80
2018-05-23T15:11:26.453Z,69.00
2018-05-23T15:13:54.862Z,71.30
2018-05-23T15:16:23.292Z,67.70
2018-05-23T15:18:52.457Z,65.60
2018-05-23T15:21:20.885Z,65.50
2018-05-23T15:23:49.274Z,68.80
2018-05-23T15:26:17.738Z,63.10
2018-05-23T15:28:46.909Z,65.70
2018-05-23T15:31:15.376Z,65.80
2018-05-23T15:33:43.804Z,63.40
2018-05-23T15:36:13.012Z,65.70
2018-05-23T15:38:42.177Z,64.50
2018-05-23T15:41:10.606Z,64.40
2018-05-23T15:43:39.763Z,64.60
2018-05-23T15:46:08.195Z,64.60
2018-05-23T15:48:36.591Z,65.00
2018-05-23T15:51:05.045Z,64.20
2018-05-23T15:53:33.435Z,62.80
2018-05-23T15:56:02.644Z,64.20
2018-05-23T15:58:31.811Z,61.70
2018-05-23T16:01:00.255Z,61.50
2018-05-23T16:03:28.655Z,61.00
2018-05-23T16:05:57.099Z,63.00
2018-05-23T16:08:26.345Z,63.80
2018-05-23T16:10:54.781Z,63.80
2018-05-23T16:13:23.968Z,62.10
2018-05-23T16:15:53.177Z,62.00
2018-05-23T16:18:22.363Z,63.70
2018-05-23T16:20:51.583Z,63.30
2018-05-23T16:23:20.771Z,62.10
2018-05-23T16:25:49.221Z,62.80
2018-05-23T16:28:17.641Z,64.20
2018-05-23T16:30:46.088Z,62.60
2018-05-23T16:33:14.511Z,63.00
2018-05-23T16:35:42.956Z,63.40
2018-05-23T16:38:11.368Z,63.10
2018-05-23T16:40:39.786Z,63.00
2018-05-23T16:43:08.237Z,64.00
2018-05-23T16:45:36.648Z,64.60
2018-05-23T16:48:05.861Z,66.00
2018-05-23T16:50:34.281Z,66.10
2018-05-23T16:53:02.733Z,67.10
2018-05-23T16:55:31.162Z,67.00
2018-05-23T16:57:59.626Z,66.50
2018-05-23T17:00:28.045Z,67.00
2018-05-23T17:02:56.504Z,67.50
2018-05-23T17:05:24.915Z,67.20
2018-05-23T17:07:53.388Z,67.30
2018-05-23T17:10:21.834Z,67.80
2018-05-23T17:12:50.297Z,68.40
2018-05-23T17:15:18.724Z,68.70
2018-05-23T17:17:47.169Z,68.20
2018-05-23T17:20:15.587Z,69.00
2018-05-23T17:22:44.049Z,69.00
2018-05-23T17:25:12.461Z,69.80
2018-05-23T17:27:40.912Z,69.40
2018-05-23T17:30:09.365Z,69.20
2018-05-23T17:32:37.832Z,69.10
2018-05-23T17:35:06.244Z,70.00
2018-05-23T17:37:34.714Z,68.90
2018-05-23T17:40:03.127Z,69.20
2018-05-23T17:42:31.670Z,69.10
2018-05-23T17:45:00.101Z,69.30
2018-05-23T17:47:28.570Z,69.10
2018-05-23T17:49:57.746Z,69.10
2018-05-23T17:52:26.185Z,69.00
2018-05-23T17:54:54.603Z,69.30
2018-05-23T17:57:23.144Z,69.00
2018-05-23T17:59:51.593Z,69.10
2018-05-23T18:02:20.051Z,69.20
2018-05-23T18:04:48.486Z,69.90
2018-05-23T18:07:16.952Z,69.60
2018-05-23T18:09:45.391Z,69.90
2018-05-23T18:12:13.814Z,70.50
2018-05-23T18:14:42.255Z,69.80
2018-05-23T18:17:10.688Z,70.40
2018-05-23T18:19:39.130Z,69.50
2018-05-23T18:22:07.556Z,69.60
2018-05-23T18:24:36.006Z,69.20
2018-05-23T18:27:04.458Z,69.60
2018-05-23T18:29:32.967Z,69.30
2018-05-23T18:32:02.115Z,69.90
2018-05-23T18:34:30.565Z,69.90
2018-05-23T18:36:58.981Z,68.50
2018-05-23T18:39:27.420Z,68.70
2018-05-23T18:41:55.840Z,68.70
2018-05-23T18:44:24.285Z,69.30
2018-05-23T18:46:52.721Z,70.60
2018-05-23T18:49:21.182Z,73.90
2018-05-23T18:51:49.608Z,68.60
2018-05-23T18:54:18.807Z,66.40
2018-05-23T18:56:47.237Z,66.30
2018-05-23T18:59:16.459Z,65.40
2018-05-23T19:01:44.870Z,65.50
2018-05-23T19:04:14.098Z,66.00
2018-05-23T19:06:42.523Z,65.00
2018-05-23T19:09:10.978Z,64.90
2018-05-23T19:11:39.409Z,64.90
2018-05-23T19:14:07.855Z,65.60
2018-05-23T19:16:36.308Z,65.80
2018-05-23T19:19:04.769Z,66.30
2018-05-23T19:21:33.187Z,65.20
2018-05-23T19:24:01.632Z,65.30
2018-05-23T19:26:30.056Z,65.30
2018-05-23T19:28:58.499Z,66.40
2018-05-23T19:31:27.699Z,66.80
2018-05-23T19:33:56.144Z,66.80
2018-05-23T19:36:24.547Z,66.40
2018-05-23T19:38:52.984Z,67.10
2018-05-23T19:41:22.226Z,67.20
2018-05-23T19:43:50.656Z,67.10
2018-05-23T19:46:19.065Z,67.60
2018-05-23T19:48:47.513Z,67.70
2018-05-23T19:51:15.929Z,68.00
2018-05-23T19:53:44.362Z,68.40
2018-05-23T19:56:12.805Z,69.10
2018-05-23T19:58:41.223Z,68.40
2018-05-23T20:01:09.661Z,69.40
2018-05-23T20:03:38.846Z,69.80
2018-05-23T20:06:08.065Z,69.70
2018-05-23T20:08:37.262Z,71.20
2018-05-23T20:11:06.477Z,71.60
2018-05-23T20:13:34.893Z,71.50
2018-05-23T20:16:03.342Z,71.80
2018-05-23T20:18:31.770Z,73.10
2018-05-23T20:21:00.209Z,74.00
2018-05-23T20:23:29.375Z,73.50
2018-05-23T20:25:57.808Z,73.50
2018-05-23T20:28:26.233Z,74.10
2018-05-23T20:30:54.700Z,75.10
2018-05-23T20:33:23.113Z,76.00
2018-05-23T20:35:51.549Z,76.40
2018-05-23T20:38:19.958Z,77.20
2018-05-23T20:40:48.405Z,77.70
2018-05-23T20:43:16.816Z,77.50
2018-05-23T20:45:45.264Z,78.00
2018-05-23T20:48:14.446Z,78.00
2018-05-23T20:50:42.885Z,78.00
2018-05-23T20:53:11.299Z,78.00
2018-05-23T20:55:39.741Z,77.90
2018-05-23T20:58:08.143Z,77.70
2018-05-23T21:00:37.355Z,78.20
2018-05-23T21:03:05.806Z,78.20
2018-05-23T21:05:34.320Z,79.20
2018-05-23T21:08:02.707Z,79.90
2018-05-23T21:10:31.149Z,80.50
2018-05-23T21:13:00.338Z,81.60
2018-05-23T21:15:29.574Z,81.90
2018-05-23T21:17:57.985Z,81.90
2018-05-23T21:20:26.463Z,82.60
2018-05-23T21:22:54.885Z,82.70
2018-05-23T21:25:23.337Z,83.00
2018-05-23T21:27:51.831Z,82.80
2018-05-23T21:30:20.986Z,82.70
2018-05-23T21:32:49.404Z,82.70
2018-05-23T21:35:17.859Z,82.70
2018-05-23T21:37:46.299Z,83.60
2018-05-23T21:40:14.738Z,84.20
2018-05-23T21:42:43.916Z,84.40
2018-05-23T21:45:13.129Z,84.80
2018-05-23T21:47:41.544Z,84.80
2018-05-23T21:50:09.997Z,85.00
2018-05-23T21:52:38.407Z,85.10
2018-05-23T21:55:06.815Z,85.30
2018-05-23T21:57:35.347Z,85.30
2018-05-23T22:00:03.763Z,85.50
2018-05-23T22:02:32.229Z,85.50
2018-05-23T22:05:00.643Z,86.00
2018-05-23T22:07:29.123Z,86.10
2018-05-23T22:09:57.538Z,86.40
2018-05-23T22:12:25.999Z,86.70
2018-05-23T22:14:54.438Z,87.60
2018-05-23T22:17:22.924Z,87.90
2018-05-23T22:19:51.327Z,87.10
2018-05-23T22:22:19.778Z,87.10
2018-05-23T22:24:48.978Z,87.00
2018-05-23T22:27:18.195Z,87.60
2018-05-23T22:29:46.606Z,87.50
2018-05-23T22:32:15.060Z,87.60
2018-05-23T22:34:43.472Z,87.50
2018-05-23T22:37:11.925Z,88.00
2018-05-23T22:39:41.111Z,87.90
2018-05-23T22:42:09.566Z,88.00
2018-05-23T22:44:37.982Z,88.20
2018-05-23T22:47:06.425Z,88.60
2018-05-23T22:49:34.831Z,89.50
2018-05-23T22:52:03.272Z,89.80
2018-05-23T22:54:31.678Z,89.90
2018-05-23T22:57:00.121Z,89.80
2018-05-23T22:59:29.297Z,90.00
2018-05-23T23:01:57.740Z,89.90
2018-05-23T23:04:26.159Z,90.10
2018-05-23T23:06:54.622Z,90.30
2018-05-23T23:09:23.041Z,90.40
2018-05-23T23:11:52.257Z,90.30
2018-05-23T23:14:20.681Z,90.00
2018-05-23T23:16:49.117Z,90.10
2018-05-23T23:19:18.293Z,90.10
2018-05-23T23:21:46.727Z,90.10
2018-05-23T23:24:15.152Z,90.10
2018-05-23T23:26:43.608Z,90.10
2018-05-23T23:29:12.784Z,90.10
2018-05-23T23:31:42.021Z,90.20
2018-05-23T23:34:10.429Z,90.20
2018-05-23T23:36:38.878Z,90.20
2018-05-23T23:39:07.315Z,90.20
2018-05-23T23:41:35.774Z,90.40
2018-05-23T23:44:04.195Z,90.50
2018-05-23T23:46:33.431Z,90.70
2018-05-23T23:49:01.858Z,90.60
2018-05-23T23:51:30.304Z,90.80
2018-05-23T23:53:58.712Z,91.00
2018-05-23T23:56:27.174Z,91.00
2018-05-23T23:58:55.602Z,91.00
